Delafield, WI

3:53 AM CDT on September 20, 2014 (GMT -0500)
Nashotah | Change Station
CLOSE
Current Station
Personal Weather Station
Location: Nashotah, WI
Elevation: 925 ft
Nearby Weather Stations

Elev 925 ft 43.09 °N, 88.40 °W | Updated 537 days ago

Thunderstorm
Thunderstorm
63 °F
Feels Like 63 °F
N
11
Wind Variable Wind from SW
Gusts 23 mph

Today
High -- | Low -- °F
--% Chance of Precip.
Yesterday
High -- | Low -- °F
Precip. -- in
6:38 AM 6:54 PM
Waning Crescent, 13% visible
Pressure 29.86 in
Visibility 10.0 miles
Clouds Clear
Dew Point 59 °F
Humidity 86%
Rainfall 0.12 in
Snow Depth Not available.
UV 0 out of 12
Pollen 4.40 out of 12
Air Quality Not available.
Flu Activity Not available.
METAR KUES 200835Z AUTO 21012G18KT 10SM CLR 17/12 A2986 RMK AO2

More Conditions Fewer Conditions

Pressure 29.86 in
Visibility 10.0 miles
Clouds Clear
Dew Point 59 °F
Humidity 86%
Rainfall 0.12 in
Snow Depth Not available.
UV 0 out of 12
Pollen 4.40 out of 12
Air Quality Not available.
Flu Activity Not available.
METAR KUES 200835Z AUTO 21012G18KT 10SM CLR 17/12 A2986 RMK AO2

More Conditions Fewer Conditions

10-Day Weather Forecast

Almanac

Astronomy

Sep. 20, 2014 Rise Set
Actual Time 6:38 AM CDT 6:54 PM CDT
Civil Twilight 6:10 AM CDT 7:22 PM CDT
Nautical Twilight 5:36 AM CDT 7:56 PM CDT
Astronomical Twilight 5:02 AM CDT 8:30 PM CDT
Moon 3:13 AM CDT 5:01 PM CDT
Length of Visible Light 13h 12m
Length of Day
12h 15m
Tomorrow will be 2m 55s shorter.
Waning Crescent, 13% of the Moon is Illuminated
Today
Waning Crescent
Sep 24
New
Oct 1
First Quarter
Oct 8
Full
Oct 15
Last Quarter

Today's Extremes

State Highs State Lows

Community

WunderPhotos

Upload Photos

1,754,793 photos uploaded!

WunderBlogs® & News

Nearby

Snow Depth

Station Depth Elevation
No new snow has been reported.

Earthquake Activity

City Distance Mag. Time & Date
No recent earthquake activity has been reported nearby.
Minimum magnitude displayed is 2.5.

Coastal Water Temperatures

Place Temperature
No Stations Reporting

Nearby Weather Stations